sensor_id;sensor_type;location;lat;lon;timestamp;P1;durP1;ratioP1;P2;durP2;ratioP2
85279;SDS011;75687;40.670;21.838;2024-01-15T00:01:28;1.10;;;1.00;;
85279;SDS011;75687;40.670;21.838;2024-01-15T00:03:59;2.60;;;1.40;;
85279;SDS011;75687;40.670;21.838;2024-01-15T00:06:30;0.90;;;0.90;;
85279;SDS011;75687;40.670;21.838;2024-01-15T00:09:01;1.30;;;1.10;;
85279;SDS011;75687;40.670;21.838;2024-01-15T00:11:32;1.50;;;1.10;;
85279;SDS011;75687;40.670;21.838;2024-01-15T00:14:02;2.50;;;1.20;;
85279;SDS011;75687;40.670;21.838;2024-01-15T00:16:33;2.10;;;1.00;;
85279;SDS011;75687;40.670;21.838;2024-01-15T00:19:03;1.10;;;0.70;;
85279;SDS011;75687;40.670;21.838;2024-01-15T00:21:34;1.30;;;1.10;;
85279;SDS011;75687;40.670;21.838;2024-01-15T00:24:05;1.70;;;1.20;;
85279;SDS011;75687;40.670;21.838;2024-01-15T00:26:35;1.20;;;1.10;;
85279;SDS011;75687;40.670;21.838;2024-01-15T00:29:07;2.10;;;1.50;;
85279;SDS011;75687;40.670;21.838;2024-01-15T00:31:37;3.30;;;1.40;;
85279;SDS011;75687;40.670;21.838;2024-01-15T00:34:08;2.20;;;1.20;;
85279;SDS011;75687;40.670;21.838;2024-01-15T00:36:39;1.90;;;1.50;;
85279;SDS011;75687;40.670;21.838;2024-01-15T00:39:09;1.40;;;0.90;;
85279;SDS011;75687;40.670;21.838;2024-01-15T00:41:40;1.60;;;1.10;;
85279;SDS011;75687;40.670;21.838;2024-01-15T00:44:11;1.70;;;1.10;;
85279;SDS011;75687;40.670;21.838;2024-01-15T00:46:44;2.10;;;1.60;;
85279;SDS011;75687;40.670;21.838;2024-01-15T00:49:15;3.40;;;1.60;;
85279;SDS011;75687;40.670;21.838;2024-01-15T00:51:46;1.10;;;1.00;;
85279;SDS011;75687;40.670;21.838;2024-01-15T00:54:17;1.70;;;1.30;;
85279;SDS011;75687;40.670;21.838;2024-01-15T00:56:47;0.80;;;0.80;;
85279;SDS011;75687;40.670;21.838;2024-01-15T00:59:18;1.60;;;1.10;;
85279;SDS011;75687;40.670;21.838;2024-01-15T01:01:48;2.30;;;1.40;;
85279;SDS011;75687;40.670;21.838;2024-01-15T01:04:19;2.50;;;1.40;;
85279;SDS011;75687;40.670;21.838;2024-01-15T01:06:50;0.80;;;0.80;;
85279;SDS011;75687;40.670;21.838;2024-01-15T01:09:21;1.90;;;1.00;;
85279;SDS011;75687;40.670;21.838;2024-01-15T01:11:51;1.00;;;0.90;;
85279;SDS011;75687;40.670;21.838;2024-01-15T01:16:51;1.20;;;0.90;;
85279;SDS011;75687;40.670;21.838;2024-01-15T01:19:21;0.80;;;0.70;;
85279;SDS011;75687;40.670;21.838;2024-01-15T01:21:53;2.60;;;1.10;;
85279;SDS011;75687;40.670;21.838;2024-01-15T01:24:23;1.90;;;1.30;;
85279;SDS011;75687;40.670;21.838;2024-01-15T01:26:55;1.50;;;1.10;;
85279;SDS011;75687;40.670;21.838;2024-01-15T01:29:25;1.20;;;0.80;;
85279;SDS011;75687;40.670;21.838;2024-01-15T01:31:56;1.70;;;1.30;;
85279;SDS011;75687;40.670;21.838;2024-01-15T01:34:27;1.30;;;1.00;;
85279;SDS011;75687;40.670;21.838;2024-01-15T01:37:01;2.10;;;1.50;;
85279;SDS011;75687;40.670;21.838;2024-01-15T01:39:31;1.60;;;1.50;;
85279;SDS011;75687;40.670;21.838;2024-01-15T01:42:02;1.60;;;1.50;;
85279;SDS011;75687;40.670;21.838;2024-01-15T01:44:34;1.90;;;1.20;;
85279;SDS011;75687;40.670;21.838;2024-01-15T01:47:05;1.10;;;0.80;;
85279;SDS011;75687;40.670;21.838;2024-01-15T01:49:35;1.60;;;1.20;;
85279;SDS011;75687;40.670;21.838;2024-01-15T01:52:07;1.50;;;1.30;;
85279;SDS011;75687;40.670;21.838;2024-01-15T01:54:38;1.80;;;1.50;;
85279;SDS011;75687;40.670;21.838;2024-01-15T01:57:10;2.40;;;1.40;;
85279;SDS011;75687;40.670;21.838;2024-01-15T01:59:41;2.10;;;1.30;;
85279;SDS011;75687;40.670;21.838;2024-01-15T02:02:11;2.30;;;1.30;;
85279;SDS011;75687;40.670;21.838;2024-01-15T02:04:42;1.70;;;1.10;;
85279;SDS011;75687;40.670;21.838;2024-01-15T02:07:13;1.80;;;1.50;;
85279;SDS011;75687;40.670;21.838;2024-01-15T02:09:45;1.20;;;1.00;;
85279;SDS011;75687;40.670;21.838;2024-01-15T02:12:16;2.70;;;1.50;;
85279;SDS011;75687;40.670;21.838;2024-01-15T02:14:47;2.80;;;1.30;;
85279;SDS011;75687;40.670;21.838;2024-01-15T02:17:17;1.10;;;0.90;;
85279;SDS011;75687;40.670;21.838;2024-01-15T02:19:49;2.20;;;1.50;;
85279;SDS011;75687;40.670;21.838;2024-01-15T02:22:19;2.00;;;1.20;;
85279;SDS011;75687;40.670;21.838;2024-01-15T02:24:50;2.20;;;1.30;;
85279;SDS011;75687;40.670;21.838;2024-01-15T02:27:20;3.70;;;1.40;;
85279;SDS011;75687;40.670;21.838;2024-01-15T02:29:51;1.90;;;1.10;;
85279;SDS011;75687;40.670;21.838;2024-01-15T02:32:22;2.30;;;1.40;;
85279;SDS011;75687;40.670;21.838;2024-01-15T02:34:53;2.90;;;2.30;;
85279;SDS011;75687;40.670;21.838;2024-01-15T02:37:24;3.30;;;1.70;;
85279;SDS011;75687;40.670;21.838;2024-01-15T02:39:54;2.60;;;1.40;;
85279;SDS011;75687;40.670;21.838;2024-01-15T02:42:26;1.80;;;1.30;;
85279;SDS011;75687;40.670;21.838;2024-01-15T02:44:57;2.30;;;1.30;;
85279;SDS011;75687;40.670;21.838;2024-01-15T02:47:27;2.70;;;1.70;;
85279;SDS011;75687;40.670;21.838;2024-01-15T02:49:58;2.00;;;1.20;;
85279;SDS011;75687;40.670;21.838;2024-01-15T02:52:28;2.20;;;1.60;;
85279;SDS011;75687;40.670;21.838;2024-01-15T02:54:59;3.20;;;1.30;;
85279;SDS011;75687;40.670;21.838;2024-01-15T02:57:30;4.10;;;1.80;;
85279;SDS011;75687;40.670;21.838;2024-01-15T03:00:00;2.70;;;1.50;;
85279;SDS011;75687;40.670;21.838;2024-01-15T03:02:32;4.00;;;1.70;;
85279;SDS011;75687;40.670;21.838;2024-01-15T03:05:05;2.00;;;1.30;;
85279;SDS011;75687;40.670;21.838;2024-01-15T03:07:36;3.10;;;2.30;;
85279;SDS011;75687;40.670;21.838;2024-01-15T03:10:08;2.40;;;1.40;;
85279;SDS011;75687;40.670;21.838;2024-01-15T03:12:39;2.80;;;1.30;;
85279;SDS011;75687;40.670;21.838;2024-01-15T03:15:10;2.30;;;1.70;;
85279;SDS011;75687;40.670;21.838;2024-01-15T03:17:42;4.80;;;1.60;;
85279;SDS011;75687;40.670;21.838;2024-01-15T03:20:12;3.10;;;1.70;;
85279;SDS011;75687;40.670;21.838;2024-01-15T03:22:43;3.00;;;2.00;;
85279;SDS011;75687;40.670;21.838;2024-01-15T03:25:13;3.00;;;2.20;;
85279;SDS011;75687;40.670;21.838;2024-01-15T03:27:44;3.30;;;1.70;;
85279;SDS011;75687;40.670;21.838;2024-01-15T03:30:15;4.80;;;1.50;;
85279;SDS011;75687;40.670;21.838;2024-01-15T03:32:45;5.30;;;1.80;;
85279;SDS011;75687;40.670;21.838;2024-01-15T03:35:18;2.20;;;1.70;;
85279;SDS011;75687;40.670;21.838;2024-01-15T03:37:49;2.60;;;1.60;;
85279;SDS011;75687;40.670;21.838;2024-01-15T03:42:50;2.80;;;1.90;;
85279;SDS011;75687;40.670;21.838;2024-01-15T03:45:21;4.30;;;1.40;;
85279;SDS011;75687;40.670;21.838;2024-01-15T03:50:21;3.80;;;2.10;;
85279;SDS011;75687;40.670;21.838;2024-01-15T03:52:51;3.50;;;2.00;;
85279;SDS011;75687;40.670;21.838;2024-01-15T03:55:21;2.60;;;1.60;;
85279;SDS011;75687;40.670;21.838;2024-01-15T03:57:52;2.10;;;1.30;;
85279;SDS011;75687;40.670;21.838;2024-01-15T04:00:22;6.20;;;2.30;;
85279;SDS011;75687;40.670;21.838;2024-01-15T04:02:53;9.90;;;3.40;;
85279;SDS011;75687;40.670;21.838;2024-01-15T04:05:24;4.90;;;2.30;;
85279;SDS011;75687;40.670;21.838;2024-01-15T04:07:54;5.80;;;2.80;;
85279;SDS011;75687;40.670;21.838;2024-01-15T04:10:25;3.10;;;2.00;;
85279;SDS011;75687;40.670;21.838;2024-01-15T04:12:55;6.80;;;3.20;;
85279;SDS011;75687;40.670;21.838;2024-01-15T04:15:27;26.90;;;9.80;;
85279;SDS011;75687;40.670;21.838;2024-01-15T04:17:58;33.50;;;13.80;;
85279;SDS011;75687;40.670;21.838;2024-01-15T04:20:29;18.40;;;7.10;;
85279;SDS011;75687;40.670;21.838;2024-01-15T04:23:25;13.40;;;6.20;;
85279;SDS011;75687;40.670;21.838;2024-01-15T04:25:55;17.40;;;7.40;;
85279;SDS011;75687;40.670;21.838;2024-01-15T04:28:26;10.20;;;5.00;;
85279;SDS011;75687;40.670;21.838;2024-01-15T04:30:57;6.70;;;2.90;;
85279;SDS011;75687;40.670;21.838;2024-01-15T04:33:27;3.60;;;2.70;;
85279;SDS011;75687;40.670;21.838;2024-01-15T04:35:59;4.80;;;2.80;;
85279;SDS011;75687;40.670;21.838;2024-01-15T04:38:31;4.80;;;3.60;;
85279;SDS011;75687;40.670;21.838;2024-01-15T04:41:04;7.60;;;3.70;;
85279;SDS011;75687;40.670;21.838;2024-01-15T04:43:34;5.80;;;2.90;;
85279;SDS011;75687;40.670;21.838;2024-01-15T04:46:06;2.40;;;1.70;;
85279;SDS011;75687;40.670;21.838;2024-01-15T04:48:36;3.40;;;2.70;;
85279;SDS011;75687;40.670;21.838;2024-01-15T04:51:08;3.30;;;2.50;;
85279;SDS011;75687;40.670;21.838;2024-01-15T04:53:38;4.70;;;2.70;;
85279;SDS011;75687;40.670;21.838;2024-01-15T04:56:09;9.20;;;3.80;;
85279;SDS011;75687;40.670;21.838;2024-01-15T04:58:40;5.90;;;2.90;;
85279;SDS011;75687;40.670;21.838;2024-01-15T05:03:39;6.80;;;2.80;;
85279;SDS011;75687;40.670;21.838;2024-01-15T05:06:10;6.60;;;4.00;;
85279;SDS011;75687;40.670;21.838;2024-01-15T05:08:41;6.70;;;4.20;;
85279;SDS011;75687;40.670;21.838;2024-01-15T05:11:12;9.50;;;3.60;;
85279;SDS011;75687;40.670;21.838;2024-01-15T05:13:42;5.30;;;2.60;;
85279;SDS011;75687;40.670;21.838;2024-01-15T05:16:13;4.20;;;2.20;;
85279;SDS011;75687;40.670;21.838;2024-01-15T05:18:44;4.10;;;3.00;;
85279;SDS011;75687;40.670;21.838;2024-01-15T05:21:14;3.30;;;2.20;;
85279;SDS011;75687;40.670;21.838;2024-01-15T05:23:45;3.70;;;2.00;;
85279;SDS011;75687;40.670;21.838;2024-01-15T05:26:15;6.00;;;3.10;;
85279;SDS011;75687;40.670;21.838;2024-01-15T05:28:46;3.70;;;1.90;;
85279;SDS011;75687;40.670;21.838;2024-01-15T05:31:16;3.30;;;1.80;;
85279;SDS011;75687;40.670;21.838;2024-01-15T05:33:47;2.80;;;1.60;;
85279;SDS011;75687;40.670;21.838;2024-01-15T05:36:18;2.60;;;1.70;;
85279;SDS011;75687;40.670;21.838;2024-01-15T05:38:49;3.40;;;1.60;;
85279;SDS011;75687;40.670;21.838;2024-01-15T05:41:19;3.40;;;1.90;;
85279;SDS011;75687;40.670;21.838;2024-01-15T05:43:50;3.00;;;1.90;;
85279;SDS011;75687;40.670;21.838;2024-01-15T05:46:20;3.60;;;1.80;;
85279;SDS011;75687;40.670;21.838;2024-01-15T05:48:51;3.10;;;2.10;;
85279;SDS011;75687;40.670;21.838;2024-01-15T05:51:22;2.60;;;1.70;;
85279;SDS011;75687;40.670;21.838;2024-01-15T05:53:53;2.80;;;1.80;;
85279;SDS011;75687;40.670;21.838;2024-01-15T05:56:23;3.90;;;2.20;;
85279;SDS011;75687;40.670;21.838;2024-01-15T06:01:23;3.70;;;1.60;;
85279;SDS011;75687;40.670;21.838;2024-01-15T06:03:53;2.60;;;1.40;;
85279;SDS011;75687;40.670;21.838;2024-01-15T06:06:25;2.70;;;2.00;;
85279;SDS011;75687;40.670;21.838;2024-01-15T06:08:56;2.40;;;1.50;;
85279;SDS011;75687;40.670;21.838;2024-01-15T06:11:33;2.80;;;2.30;;
85279;SDS011;75687;40.670;21.838;2024-01-15T06:14:04;3.70;;;1.70;;
85279;SDS011;75687;40.670;21.838;2024-01-15T06:16:35;3.20;;;2.30;;
85279;SDS011;75687;40.670;21.838;2024-01-15T06:19:06;3.00;;;1.60;;
85279;SDS011;75687;40.670;21.838;2024-01-15T06:21:36;3.30;;;2.00;;
85279;SDS011;75687;40.670;21.838;2024-01-15T06:24:07;2.50;;;1.90;;
85279;SDS011;75687;40.670;21.838;2024-01-15T06:26:38;2.70;;;1.60;;
85279;SDS011;75687;40.670;21.838;2024-01-15T06:29:08;4.60;;;2.30;;
85279;SDS011;75687;40.670;21.838;2024-01-15T06:31:39;5.20;;;2.80;;
85279;SDS011;75687;40.670;21.838;2024-01-15T06:34:09;6.60;;;3.30;;
85279;SDS011;75687;40.670;21.838;2024-01-15T06:36:40;4.30;;;2.60;;
85279;SDS011;75687;40.670;21.838;2024-01-15T06:39:13;6.00;;;2.40;;
85279;SDS011;75687;40.670;21.838;2024-01-15T06:41:44;4.70;;;2.60;;
85279;SDS011;75687;40.670;21.838;2024-01-15T06:44:15;6.30;;;2.60;;
85279;SDS011;75687;40.670;21.838;2024-01-15T06:46:46;6.60;;;3.50;;
85279;SDS011;75687;40.670;21.838;2024-01-15T06:49:16;8.40;;;3.40;;
85279;SDS011;75687;40.670;21.838;2024-01-15T06:51:47;8.20;;;4.20;;
85279;SDS011;75687;40.670;21.838;2024-01-15T06:54:17;9.70;;;4.30;;
85279;SDS011;75687;40.670;21.838;2024-01-15T06:56:48;10.20;;;4.50;;
85279;SDS011;75687;40.670;21.838;2024-01-15T06:59:18;8.90;;;4.60;;
85279;SDS011;75687;40.670;21.838;2024-01-15T07:01:49;12.60;;;5.00;;
85279;SDS011;75687;40.670;21.838;2024-01-15T07:04:19;7.40;;;3.80;;
85279;SDS011;75687;40.670;21.838;2024-01-15T07:06:50;10.80;;;5.10;;
85279;SDS011;75687;40.670;21.838;2024-01-15T07:09:26;10.20;;;5.60;;
85279;SDS011;75687;40.670;21.838;2024-01-15T07:11:56;8.00;;;3.90;;
85279;SDS011;75687;40.670;21.838;2024-01-15T07:14:27;7.10;;;3.30;;
85279;SDS011;75687;40.670;21.838;2024-01-15T07:16:58;7.90;;;3.20;;
85279;SDS011;75687;40.670;21.838;2024-01-15T07:19:28;7.40;;;3.70;;
85279;SDS011;75687;40.670;21.838;2024-01-15T07:21:59;5.10;;;2.90;;
85279;SDS011;75687;40.670;21.838;2024-01-15T07:24:29;3.60;;;2.40;;
85279;SDS011;75687;40.670;21.838;2024-01-15T07:27:02;5.50;;;3.20;;
85279;SDS011;75687;40.670;21.838;2024-01-15T07:29:33;11.40;;;4.70;;
85279;SDS011;75687;40.670;21.838;2024-01-15T07:32:06;10.30;;;5.50;;
85279;SDS011;75687;40.670;21.838;2024-01-15T07:34:36;6.80;;;3.90;;
85279;SDS011;75687;40.670;21.838;2024-01-15T07:37:07;4.30;;;3.00;;
85279;SDS011;75687;40.670;21.838;2024-01-15T07:39:37;3.80;;;2.40;;
85279;SDS011;75687;40.670;21.838;2024-01-15T07:42:09;5.10;;;2.90;;
85279;SDS011;75687;40.670;21.838;2024-01-15T07:44:40;4.80;;;2.70;;
85279;SDS011;75687;40.670;21.838;2024-01-15T07:47:10;3.00;;;2.30;;
85279;SDS011;75687;40.670;21.838;2024-01-15T07:49:41;4.40;;;2.70;;
85279;SDS011;75687;40.670;21.838;2024-01-15T07:52:12;4.60;;;2.10;;
85279;SDS011;75687;40.670;21.838;2024-01-15T07:54:42;4.50;;;1.70;;
85279;SDS011;75687;40.670;21.838;2024-01-15T07:57:13;3.80;;;2.00;;
85279;SDS011;75687;40.670;21.838;2024-01-15T07:59:43;3.10;;;1.90;;
85279;SDS011;75687;40.670;21.838;2024-01-15T08:02:14;2.90;;;1.70;;
85279;SDS011;75687;40.670;21.838;2024-01-15T08:04:45;2.50;;;1.40;;
85279;SDS011;75687;40.670;21.838;2024-01-15T08:07:16;4.40;;;2.00;;
85279;SDS011;75687;40.670;21.838;2024-01-15T08:09:46;2.90;;;1.40;;
85279;SDS011;75687;40.670;21.838;2024-01-15T08:12:17;2.90;;;1.90;;
85279;SDS011;75687;40.670;21.838;2024-01-15T08:14:47;3.20;;;1.90;;
85279;SDS011;75687;40.670;21.838;2024-01-15T08:17:18;3.80;;;2.30;;
85279;SDS011;75687;40.670;21.838;2024-01-15T08:19:48;3.00;;;2.00;;
85279;SDS011;75687;40.670;21.838;2024-01-15T08:22:19;5.10;;;2.50;;
85279;SDS011;75687;40.670;21.838;2024-01-15T08:24:49;5.50;;;3.20;;
85279;SDS011;75687;40.670;21.838;2024-01-15T08:27:20;6.40;;;3.00;;
85279;SDS011;75687;40.670;21.838;2024-01-15T08:29:50;3.60;;;2.00;;
85279;SDS011;75687;40.670;21.838;2024-01-15T08:32:21;3.30;;;2.20;;
85279;SDS011;75687;40.670;21.838;2024-01-15T08:34:52;4.30;;;1.80;;
85279;SDS011;75687;40.670;21.838;2024-01-15T08:37:24;2.40;;;1.60;;
85279;SDS011;75687;40.670;21.838;2024-01-15T08:39:54;2.90;;;1.80;;
85279;SDS011;75687;40.670;21.838;2024-01-15T08:42:28;7.60;;;2.20;;
85279;SDS011;75687;40.670;21.838;2024-01-15T08:44:58;2.80;;;1.70;;
85279;SDS011;75687;40.670;21.838;2024-01-15T08:47:29;3.00;;;1.90;;
85279;SDS011;75687;40.670;21.838;2024-01-15T08:50:00;3.20;;;1.50;;
85279;SDS011;75687;40.670;21.838;2024-01-15T08:52:31;3.60;;;2.00;;
85279;SDS011;75687;40.670;21.838;2024-01-15T08:55:02;2.50;;;1.70;;
85279;SDS011;75687;40.670;21.838;2024-01-15T08:57:33;8.10;;;3.30;;
85279;SDS011;75687;40.670;21.838;2024-01-15T09:00:04;22.40;;;11.20;;
85279;SDS011;75687;40.670;21.838;2024-01-15T09:02:36;8.70;;;5.50;;
85279;SDS011;75687;40.670;21.838;2024-01-15T09:05:07;5.60;;;4.30;;
85279;SDS011;75687;40.670;21.838;2024-01-15T09:07:38;12.50;;;4.30;;
85279;SDS011;75687;40.670;21.838;2024-01-15T09:10:09;8.70;;;3.90;;
85279;SDS011;75687;40.670;21.838;2024-01-15T09:12:40;6.40;;;2.50;;
85279;SDS011;75687;40.670;21.838;2024-01-15T09:15:10;8.20;;;5.60;;
85279;SDS011;75687;40.670;21.838;2024-01-15T09:17:41;8.90;;;4.90;;
85279;SDS011;75687;40.670;21.838;2024-01-15T09:20:12;4.40;;;2.60;;
85279;SDS011;75687;40.670;21.838;2024-01-15T09:22:42;7.90;;;3.10;;
85279;SDS011;75687;40.670;21.838;2024-01-15T09:25:14;10.00;;;4.20;;
85279;SDS011;75687;40.670;21.838;2024-01-15T09:27:44;8.10;;;4.20;;
85279;SDS011;75687;40.670;21.838;2024-01-15T09:30:15;13.50;;;5.60;;
85279;SDS011;75687;40.670;21.838;2024-01-15T09:32:46;4.70;;;2.30;;
85279;SDS011;75687;40.670;21.838;2024-01-15T09:35:16;4.30;;;2.30;;
85279;SDS011;75687;40.670;21.838;2024-01-15T09:37:49;5.00;;;2.00;;
85279;SDS011;75687;40.670;21.838;2024-01-15T09:40:19;4.90;;;2.10;;
85279;SDS011;75687;40.670;21.838;2024-01-15T09:42:51;4.10;;;2.00;;
85279;SDS011;75687;40.670;21.838;2024-01-15T09:45:21;3.40;;;2.10;;
85279;SDS011;75687;40.670;21.838;2024-01-15T09:47:52;3.60;;;2.30;;
85279;SDS011;75687;40.670;21.838;2024-01-15T09:50:23;7.10;;;2.90;;
85279;SDS011;75687;40.670;21.838;2024-01-15T09:52:54;2.70;;;1.80;;
85279;SDS011;75687;40.670;21.838;2024-01-15T09:55:25;3.80;;;2.20;;
85279;SDS011;75687;40.670;21.838;2024-01-15T09:57:56;3.80;;;2.20;;
85279;SDS011;75687;40.670;21.838;2024-01-15T10:00:28;5.00;;;2.10;;
85279;SDS011;75687;40.670;21.838;2024-01-15T10:03:03;5.00;;;2.90;;
85279;SDS011;75687;40.670;21.838;2024-01-15T10:05:38;5.50;;;2.90;;
85279;SDS011;75687;40.670;21.838;2024-01-15T10:08:09;6.30;;;4.20;;
85279;SDS011;75687;40.670;21.838;2024-01-15T10:10:40;6.00;;;3.00;;
85279;SDS011;75687;40.670;21.838;2024-01-15T10:13:11;4.70;;;2.50;;
85279;SDS011;75687;40.670;21.838;2024-01-15T10:15:44;7.60;;;3.60;;
85279;SDS011;75687;40.670;21.838;2024-01-15T10:18:15;6.50;;;3.10;;
85279;SDS011;75687;40.670;21.838;2024-01-15T10:20:47;5.40;;;2.90;;
85279;SDS011;75687;40.670;21.838;2024-01-15T10:23:18;6.00;;;3.10;;
85279;SDS011;75687;40.670;21.838;2024-01-15T10:25:49;4.70;;;2.70;;
85279;SDS011;75687;40.670;21.838;2024-01-15T10:28:19;10.30;;;4.70;;
85279;SDS011;75687;40.670;21.838;2024-01-15T10:30:52;10.50;;;4.00;;
85279;SDS011;75687;40.670;21.838;2024-01-15T10:33:24;6.90;;;3.30;;
85279;SDS011;75687;40.670;21.838;2024-01-15T10:35:55;3.40;;;2.30;;
85279;SDS011;75687;40.670;21.838;2024-01-15T10:38:27;4.70;;;3.10;;
85279;SDS011;75687;40.670;21.838;2024-01-15T10:40:57;10.70;;;4.70;;
85279;SDS011;75687;40.670;21.838;2024-01-15T10:43:28;6.70;;;3.00;;
85279;SDS011;75687;40.670;21.838;2024-01-15T10:45:58;3.80;;;2.70;;
85279;SDS011;75687;40.670;21.838;2024-01-15T10:48:29;5.20;;;2.70;;
85279;SDS011;75687;40.670;21.838;2024-01-15T10:51:01;3.80;;;2.70;;
85279;SDS011;75687;40.670;21.838;2024-01-15T10:53:39;5.10;;;2.70;;
85279;SDS011;75687;40.670;21.838;2024-01-15T10:56:09;4.20;;;2.30;;
85279;SDS011;75687;40.670;21.838;2024-01-15T10:58:40;4.10;;;2.60;;
85279;SDS011;75687;40.670;21.838;2024-01-15T11:01:11;4.20;;;2.30;;
85279;SDS011;75687;40.670;21.838;2024-01-15T11:03:43;5.00;;;2.90;;
85279;SDS011;75687;40.670;21.838;2024-01-15T11:06:18;4.90;;;2.60;;
85279;SDS011;75687;40.670;21.838;2024-01-15T11:08:50;7.70;;;3.00;;
85279;SDS011;75687;40.670;21.838;2024-01-15T11:11:20;4.10;;;2.80;;
85279;SDS011;75687;40.670;21.838;2024-01-15T11:13:51;8.40;;;4.20;;
85279;SDS011;75687;40.670;21.838;2024-01-15T11:16:22;7.60;;;4.40;;
85279;SDS011;75687;40.670;21.838;2024-01-15T11:19:02;4.40;;;2.90;;
85279;SDS011;75687;40.670;21.838;2024-01-15T11:21:34;6.10;;;2.70;;
85279;SDS011;75687;40.670;21.838;2024-01-15T11:24:12;4.90;;;2.90;;
85279;SDS011;75687;40.670;21.838;2024-01-15T11:27:06;5.30;;;3.10;;
85279;SDS011;75687;40.670;21.838;2024-01-15T11:29:37;4.40;;;2.40;;
85279;SDS011;75687;40.670;21.838;2024-01-15T11:32:08;3.30;;;2.40;;
85279;SDS011;75687;40.670;21.838;2024-01-15T11:34:52;4.30;;;2.20;;
85279;SDS011;75687;40.670;21.838;2024-01-15T11:37:26;3.50;;;2.20;;
85279;SDS011;75687;40.670;21.838;2024-01-15T11:40:01;3.60;;;2.50;;
85279;SDS011;75687;40.670;21.838;2024-01-15T11:42:33;4.30;;;2.60;;
85279;SDS011;75687;40.670;21.838;2024-01-15T11:45:04;3.50;;;2.30;;
85279;SDS011;75687;40.670;21.838;2024-01-15T11:47:42;3.60;;;2.00;;
85279;SDS011;75687;40.670;21.838;2024-01-15T11:50:26;3.00;;;2.60;;
85279;SDS011;75687;40.670;21.838;2024-01-15T11:53:00;7.60;;;4.50;;
85279;SDS011;75687;40.670;21.838;2024-01-15T11:55:35;9.70;;;5.40;;
85279;SDS011;75687;40.670;21.838;2024-01-15T11:58:08;5.60;;;3.30;;
85279;SDS011;75687;40.670;21.838;2024-01-15T12:00:40;4.20;;;2.80;;
85279;SDS011;75687;40.670;21.838;2024-01-15T12:03:11;3.80;;;3.00;;
85279;SDS011;75687;40.670;21.838;2024-01-15T12:05:42;4.00;;;2.70;;
85279;SDS011;75687;40.670;21.838;2024-01-15T12:08:12;3.80;;;2.30;;
85279;SDS011;75687;40.670;21.838;2024-01-15T12:10:43;5.40;;;3.40;;
85279;SDS011;75687;40.670;21.838;2024-01-15T12:13:14;6.60;;;3.90;;
85279;SDS011;75687;40.670;21.838;2024-01-15T12:15:46;5.80;;;2.90;;
85279;SDS011;75687;40.670;21.838;2024-01-15T12:18:17;7.30;;;3.30;;
85279;SDS011;75687;40.670;21.838;2024-01-15T12:20:49;5.20;;;3.00;;
85279;SDS011;75687;40.670;21.838;2024-01-15T12:23:20;6.00;;;4.10;;
85279;SDS011;75687;40.670;21.838;2024-01-15T12:25:50;5.80;;;3.00;;
85279;SDS011;75687;40.670;21.838;2024-01-15T12:28:21;4.60;;;3.20;;
85279;SDS011;75687;40.670;21.838;2024-01-15T12:30:51;6.50;;;3.90;;
85279;SDS011;75687;40.670;21.838;2024-01-15T12:33:21;7.90;;;3.70;;
85279;SDS011;75687;40.670;21.838;2024-01-15T12:35:53;6.10;;;3.90;;
85279;SDS011;75687;40.670;21.838;2024-01-15T12:38:24;7.00;;;3.80;;
85279;SDS011;75687;40.670;21.838;2024-01-15T12:40:54;6.40;;;3.50;;
85279;SDS011;75687;40.670;21.838;2024-01-15T12:43:24;6.10;;;3.40;;
85279;SDS011;75687;40.670;21.838;2024-01-15T12:45:55;8.20;;;4.90;;
85279;SDS011;75687;40.670;21.838;2024-01-15T12:48:26;9.60;;;4.40;;
85279;SDS011;75687;40.670;21.838;2024-01-15T12:50:57;6.40;;;4.00;;
85279;SDS011;75687;40.670;21.838;2024-01-15T12:53:27;8.30;;;4.00;;
85279;SDS011;75687;40.670;21.838;2024-01-15T12:55:58;13.20;;;6.50;;
85279;SDS011;75687;40.670;21.838;2024-01-15T12:58:28;8.60;;;4.80;;
85279;SDS011;75687;40.670;21.838;2024-01-15T13:00:59;6.90;;;4.60;;
85279;SDS011;75687;40.670;21.838;2024-01-15T13:03:30;10.30;;;4.60;;
85279;SDS011;75687;40.670;21.838;2024-01-15T13:06:01;7.50;;;4.10;;
85279;SDS011;75687;40.670;21.838;2024-01-15T13:08:32;8.80;;;5.40;;
85279;SDS011;75687;40.670;21.838;2024-01-15T13:11:04;10.20;;;6.00;;
85279;SDS011;75687;40.670;21.838;2024-01-15T13:13:34;8.90;;;5.10;;
85279;SDS011;75687;40.670;21.838;2024-01-15T13:16:06;6.30;;;3.90;;
85279;SDS011;75687;40.670;21.838;2024-01-15T13:18:37;8.60;;;5.20;;
85279;SDS011;75687;40.670;21.838;2024-01-15T13:21:09;8.30;;;4.90;;
85279;SDS011;75687;40.670;21.838;2024-01-15T13:23:41;8.80;;;5.30;;
85279;SDS011;75687;40.670;21.838;2024-01-15T13:26:11;11.40;;;5.70;;
85279;SDS011;75687;40.670;21.838;2024-01-15T13:28:42;13.90;;;7.20;;
85279;SDS011;75687;40.670;21.838;2024-01-15T13:31:12;13.90;;;6.90;;
85279;SDS011;75687;40.670;21.838;2024-01-15T13:33:43;12.20;;;6.60;;
85279;SDS011;75687;40.670;21.838;2024-01-15T13:36:13;11.10;;;6.70;;
85279;SDS011;75687;40.670;21.838;2024-01-15T13:38:44;13.40;;;6.60;;
85279;SDS011;75687;40.670;21.838;2024-01-15T13:41:14;11.70;;;5.70;;
85279;SDS011;75687;40.670;21.838;2024-01-15T13:43:47;12.70;;;6.30;;
85279;SDS011;75687;40.670;21.838;2024-01-15T13:46:18;10.00;;;5.80;;
85279;SDS011;75687;40.670;21.838;2024-01-15T13:48:49;9.00;;;5.40;;
85279;SDS011;75687;40.670;21.838;2024-01-15T13:51:22;9.40;;;5.60;;
85279;SDS011;75687;40.670;21.838;2024-01-15T13:53:52;9.80;;;6.10;;
85279;SDS011;75687;40.670;21.838;2024-01-15T13:56:23;11.70;;;5.30;;
85279;SDS011;75687;40.670;21.838;2024-01-15T13:58:59;8.70;;;5.90;;
85279;SDS011;75687;40.670;21.838;2024-01-15T14:01:29;14.80;;;6.90;;
85279;SDS011;75687;40.670;21.838;2024-01-15T14:04:00;20.60;;;9.40;;
85279;SDS011;75687;40.670;21.838;2024-01-15T14:06:33;23.30;;;10.00;;
85279;SDS011;75687;40.670;21.838;2024-01-15T14:09:03;14.50;;;8.50;;
85279;SDS011;75687;40.670;21.838;2024-01-15T14:11:38;13.20;;;6.70;;
85279;SDS011;75687;40.670;21.838;2024-01-15T14:14:08;10.40;;;6.00;;
85279;SDS011;75687;40.670;21.838;2024-01-15T14:16:39;10.60;;;7.00;;
85279;SDS011;75687;40.670;21.838;2024-01-15T14:19:09;9.30;;;5.60;;
85279;SDS011;75687;40.670;21.838;2024-01-15T14:21:40;10.60;;;5.80;;
85279;SDS011;75687;40.670;21.838;2024-01-15T14:24:11;9.80;;;6.10;;
85279;SDS011;75687;40.670;21.838;2024-01-15T14:26:42;12.00;;;7.20;;
85279;SDS011;75687;40.670;21.838;2024-01-15T14:29:13;11.80;;;5.80;;
85279;SDS011;75687;40.670;21.838;2024-01-15T14:31:44;12.90;;;7.40;;
85279;SDS011;75687;40.670;21.838;2024-01-15T14:34:15;12.50;;;7.20;;
85279;SDS011;75687;40.670;21.838;2024-01-15T14:36:46;11.70;;;7.00;;
85279;SDS011;75687;40.670;21.838;2024-01-15T14:39:17;8.90;;;6.20;;
85279;SDS011;75687;40.670;21.838;2024-01-15T14:41:49;8.30;;;5.20;;
85279;SDS011;75687;40.670;21.838;2024-01-15T14:44:20;8.70;;;5.20;;
85279;SDS011;75687;40.670;21.838;2024-01-15T14:46:50;5.60;;;3.80;;
85279;SDS011;75687;40.670;21.838;2024-01-15T14:49:21;6.30;;;4.20;;
85279;SDS011;75687;40.670;21.838;2024-01-15T14:51:51;8.30;;;5.50;;
85279;SDS011;75687;40.670;21.838;2024-01-15T14:54:22;10.10;;;6.10;;
85279;SDS011;75687;40.670;21.838;2024-01-15T14:56:54;16.60;;;8.40;;
85279;SDS011;75687;40.670;21.838;2024-01-15T14:59:25;15.60;;;7.40;;
85279;SDS011;75687;40.670;21.838;2024-01-15T15:01:57;9.60;;;5.90;;
85279;SDS011;75687;40.670;21.838;2024-01-15T15:04:27;8.60;;;5.50;;
85279;SDS011;75687;40.670;21.838;2024-01-15T15:06:57;8.80;;;5.80;;
85279;SDS011;75687;40.670;21.838;2024-01-15T15:09:28;10.20;;;5.40;;